NWS Home NWS Lubbock West Texas Mesonet                      Daily Summary For 02/25/2021

Latest   N   C   S   Daily Sum   3hrΔ   24hrΔ   Soil Data 
Site Map   24hr Precip   72hr Precip   Google Plot


Station Time of Last Max Temp Min Temp Max/Min Dew Pt. Max/Min RH 10m Avg Wind 2m Avg Wind Peak Gust @ 33ft (mph) Potential Evapotranspiration
mm/day or in/day
Rain Sum Solar Rad
MJ/m^2
% Clear Day Red Flag
Abernathy 5ENE 11:59 PM 79 36 57 /28 68 / 47 12.1  (E) 9.3 24.1 mph 61° @ 0814 AM 1.8 or 0.07 0.00 7.6 55.9 0
Adrian 6WSW 11:59 PM 79 36 57 /28 68 / 47 10.8  (SE) 8.2 28.6 mph 127° @ 1229 AM 1.5 or 0.06 0.00 12.1 92.7 0
Aiken 3WSW 11:59 PM 79 36 57 /28 68 / 47 12.9  (E) 10.3 24 mph 58° @ 0823 AM 1.8 or 0.07 0.00 7.6 56.9 0
Amarillo 15NNW 11:59 PM 79 36 57 /28 68 / 47 6.9  (E) 5.1 18.5 mph 83° @ 1240 AM 1.3 or 0.05 0.00 10.6 82.7 0
Amarillo 7SSE 11:59 PM 79 36 57 /28 68 / 47 7.5  (SE) 4.8 17.5 mph 90° @ 0354 PM 1.3 or 0.05 0.00 9.8 75.7 0
Amarillo 9NNE 11:59 PM 79 36 57 /28 68 / 47 5.3  (E) 3.9 16.8 mph 76° @ 0334 PM 1 or 0.04 0.00 10.7 82.7 0
Amherst 1NE 11:55 PM 79 36 57 /28 68 / 47 9.7  (E) 7.2 20.8 mph 66° @ 1200 PM 1.5 or 0.06 0.00 1.7 63.9 0
Andrews 2E 11:59 PM 79 36 57 /28 68 / 47 10  (E) 6.3 27.4 mph 64° @ 0820 AM 1.8 or 0.07 0.00 6.8 47.9 0
Anton 6SSW 11:55 PM 79 36 57 /28 68 / 47 11.9  (E) 9.6 24.1 mph 54° @ 0930 AM 2 or 0.08 0.00 8 58.7 0
Aspermont 3NE 11:55 PM 79 36 57 /28 68 / 47 8.9  (NE) 6 20.7 mph 37° @ 0935 AM 1.3 or 0.05 0.00 1.1 38.2 0
Big Bend NP - Castolon 11:59 PM 79 36 57 /28 68 / 47 7.7  (W) 6 20.3 mph 324° @ 0758 PM 3.3 or 0.13 0.00 16.3 103.9 0
Big Bend NP - Persimmon Gap 11:59 PM 79 36 57 /28 68 / 47 17.4  (N) 14 34.6 mph 31° @ 0658 PM 3 or 0.12 0.00 9.8 63.3 0
Big Lake 1WNW 11:59 PM 79 36 57 /28 68 / 47 9.5  (E) 7.7 22.2 mph 73° @ 0323 AM 1.5 or 0.06 0.00 5 33.7 0
Bootleg 11WNW 11:59 PM 79 36 57 /28 68 / 47 8.3  (SE) 5.7 20.2 mph 76° @ 1000 AM 1.3 or 0.05 0.00 11 83.2 0
Borger 7E 11:59 PM 79 36 57 /28 68 / 47 7.3  (E) 4.8 19.7 mph 73° @ 1037 AM 1.3 or 0.05 0.00 10.9 86 0
Boys Ranch 1WSW 11:59 PM 79 36 57 /28 68 / 47 3.1  (E) 2.1 13 mph 112° @ 0316 PM 0.8 or 0.03 0.00 10.8 84.2 0
Brownfield 2S 11:59 PM 79 36 57 /28 68 / 47 12.9  (E) 10.2 27.4 mph 75° @ 0852 AM 2 or 0.08 0.00 7.1 50.8 0
Canadian 6E 11:59 PM 79 36 57 /28 68 / 47 8.6  (E) 5.7 21 mph 27° @ 0138 PM 1.3 or 0.05 0.00 10.4 83 0
Caprock Canyons State Park 11:59 PM 79 36 57 /28 68 / 47 6.4  (E) 4.1 17 mph 30° @ 0903 AM 1.3 or 0.05 0.00 5.9 44.9 0
Childress 2NNE 11:55 PM 79 36 57 /28 68 / 47 9.6  (NE) 6.4 20 mph 12° @ 0505 AM 1.3 or 0.05 0.00 4.8 36.5 0
Clarendon 2WSW 11:55 PM 79 36 57 /28 68 / 47 9.7  (NE) 6.8 22 mph 64° @ 1055 AM 1.5 or 0.06 0.00 9.6 73.9 0
Claude 12SW 11:59 PM 79 36 57 /28 68 / 47 9.1  (E) 6.5 19 mph 83° @ 1211 AM 1.5 or 0.06 0.00 11.7 89.2 0
Clyde 2WNW 11:59 PM 79 36 57 /28 68 / 47 10.6  (NE) 8.2 23.4 mph 48° @ 0122 AM 1.3 or 0.05 0.00 2.8 19.9 0
Colorado City 5NW 11:59 PM 79 36 57 /28 68 / 47 12.1  (NE) 9 25.4 mph 60° @ 0101 AM 1.8 or 0.07 0.00 4.2 29.8 0
Comanche Springs 11:59 PM 79 36 57 /28 68 / 47 6.8  (NE) 4.9 19.7 mph 4° @ 0417 AM 1 or 0.04 0.00 5.8 43.7 0
Coyanosa 2N 11:59 PM 79 36 57 /28 68 / 47 8  (E) 5 18.2 mph 64° @ 0915 AM 1.8 or 0.07 0.00 11.7 79.7 0
Crane 1NNW 11:59 PM 79 36 57 /28 68 / 47 11.2  (E) 9.1 23.6 mph 92° @ 0503 AM 2 or 0.08 0.00 9.2 63.1 0
Crowell 1E 11:59 PM 79 36 57 /28 68 / 47 9.4  (N) 7.1 23.5 mph 5° @ 0423 AM 1 or 0.04 0.00 5.4 40.6 0
Dell City 11:59 PM 79 36 57 /28 68 / 47 6.2  (SW) 4.6 22.1 mph 137° @ 0427 PM 2 or 0.08 0.00 17.3 119.2 0
Denver City 7WNW 11:55 PM 79 36 57 /28 68 / 47 11.5  (E) 8.5 23.4 mph 108° @ 0150 AM 1.8 or 0.07 0.00 8.5 60.7 0
Dimmitt 2NE 11:55 PM 79 36 57 /28 68 / 47 10.6  (E) 8.1 23 mph 60° @ 0900 AM 1.8 or 0.07 0.00 10.1 76.2 0
Doole 3WNW 11:59 PM 79 36 57 /28 68 / 47 9  (E) 7.4 18.7 mph 24° @ 0401 PM 1.8 or 0.07 0.00 4.6 31.4 0
Dora NM 2SW 11:55 PM 79 36 57 /28 68 / 47 10.2  (SE) 7.1 25.4 mph 122° @ 0130 AM 1.5 or 0.06 0.00 10.8 79.1 0
Dozier 3W 11:59 PM 79 36 57 /28 68 / 47 8.7  (N) 5.8 19.8 mph 51° @ 1131 AM 1.5 or 0.06 0.00 9.9 76.5 0
Earth 9WSW 11:59 PM 79 36 57 /28 68 / 47 9.3  (E) 7.6 21.4 mph 63° @ 1005 AM 1.5 or 0.06 0.00 8.5 63.2 0
Endee NM 2SW 11:59 PM 79 36 57 /28 68 / 47 8.6  (SE) 6.1 29 mph 132° @ 1229 AM 1.5 or 0.06 0.00 11.1 84.7 0
Estelline 3SSE 11:59 PM 79 36 57 /28 68 / 47 7.5  (NE) 4.7 17.7 mph 35° @ 0203 PM 1.3 or 0.05 0.00 5.3 40.1 0
Floydada 2NNE 11:55 PM 79 36 57 /28 68 / 47 13  (E) 9.6 23.1 mph 63° @ 0330 AM 1.8 or 0.07 0.00 6.9 50.8 0
Fluvanna 3WNW 11:55 PM 79 36 57 /28 68 / 47 14.4  (NE) 11.5 28.3 mph 48° @ 0715 AM 1.8 or 0.07 0.00 4.7 33.7 0
Fort Chadbourne 11:59 PM 79 36 57 /28 68 / 47 8.7  (NE) 5.1 22.1 mph 55° @ 1230 AM 1.5 or 0.06 0.00 3.2 22.4 0
Fort Lancaster 11:59 PM 79 36 57 /28 68 / 47 6.7  (NE) 4.2 18.8 mph 116° @ 1142 AM 1.3 or 0.05 0.00 4.1 27.7 0
Fort Lewis CO 11:59 PM 79 36 57 /28 68 / 47 6.9  (W) 4.9 18 mph 296° @ 0645 PM 1 or 0.04 0.00 18 145.2 0
Fort McKavett 11:59 PM 79 36 57 /28 68 / 47 7.2  (NE) 3.9 18.5 mph 43° @ 0833 AM 1.5 or 0.06 0.00 3.3 22.2 0
Friona 2NE 11:55 PM 79 36 57 /28 68 / 47 8.3  (E) 5.9 20.2 mph 99° @ 0235 AM 1.3 or 0.05 0.00 10 75.5 0
Fritch 1WNW 11:59 PM 79 36 57 /28 68 / 47 5.7  (E) 4.6 20.1 mph 94° @ 1216 AM 1 or 0.04 0.00 10.7 84.3 0
Gail 2ESE 11:59 PM 79 36 57 /28 68 / 47 9.7  (NE) 6.3 25.2 mph 51° @ 0713 AM 1.5 or 0.06 0.00 5 35.6 0
Goodlett 3W 11:55 PM 79 36 57 /28 68 / 47 11  (NE) 8.5 20.1 mph 11° @ 0500 AM 1.3 or 0.05 0.00 5.7 43.1 0
Goodnight 11:59 PM 79 36 57 /28 68 / 47 7.4  (E) 5.1 18.6 mph 85° @ 0422 PM 1.3 or 0.05 0.00 10.3 79.5 0
Graham 5SSW 11:59 PM 79 36 57 /28 68 / 47 13.2  (NE) 9.7 31.8 mph 58° @ 0644 AM 1.8 or 0.07 0.00 5.8 42 0
Guadalupe Mtns Natl Park 11:59 PM 79 36 57 /28 68 / 47 7.1  (N) 4.5 21.9 mph 74° @ 1140 AM 1.8 or 0.07 0.00 18.4 124.8 0
Guthrie 10WSW 11:59 PM 79 36 57 /28 68 / 47 10.4  (NE) 7.3 26.3 mph 6° @ 1109 AM 1.3 or 0.05 0.00 6.1 45 0
Hackberry 2SSE 11:59 PM 79 36 57 /28 68 / 47 8.3  (NE) 6.1 20.1 mph 23° @ 1143 AM 1 or 0.04 0.00 6.2 46.7 0
Happy 1E 11:59 PM 79 36 57 /28 68 / 47 9.2  (E) 6.7 17.9 mph 67° @ 1051 AM 1.5 or 0.06 0.00 10.1 76.6 0
Hart 3N 11:55 PM 79 36 57 /28 68 / 47 11.1  (E) 8.3 22.1 mph 54° @ 0945 AM 1.5 or 0.06 0.00 7.8 58.1 0
Haskell 1NW 11:55 PM 79 36 57 /28 68 / 47 11.5  (NE) 8.6 21.5 mph 9° @ 0230 PM 1 or 0.04 0.00 4.2 30.8 0
Hefner 1SW 11:59 PM 79 36 57 /28 68 / 47 10.8  (NE) 7.9 20.8 mph 11° @ 1208 PM 1.3 or 0.05 0.00 4.9 36.3 0
Hereford 2NW 11:55 PM 79 36 57 /28 68 / 47 7.7  (E) 6.3 17.5 mph 91° @ 0220 AM 1.3 or 0.05 0.00 10.2 77.7 0
Hobbs NM 5NW 11:59 PM 79 36 57 /28 68 / 47 7.5  (E) 3.7 22 mph 104° @ 0244 AM 1.5 or 0.06 0.00 11.3 80 0
Jayton 1SSE 11:55 PM 79 36 57 /28 68 / 47 9.7  (NE) 7.3 23.8 mph 30° @ 1100 AM 1.3 or 0.05 0.00 5.6 40.8 0
Junction 1SSW 11:59 PM 79 36 57 /28 68 / 47 7.4  (N) 3.9 18 mph 15° @ 1102 PM 1.5 or 0.06 0.00 3.7 24.8 0
Kent 9E 11:59 PM 79 36 57 /28 68 / 47 5.5  (SE) 3.7 16.4 mph 92° @ 0325 PM 1.5 or 0.06 0.00 15.4 102.8 0
Knox City 3NW 11:59 PM 79 36 57 /28 68 / 47 9  (NE) 6.2 21.9 mph 32° @ 1148 AM 1 or 0.04 0.00 5.6 41.2 0
Lake Alan Henry 1NW 11:59 PM 79 36 57 /28 68 / 47 10.7  (E) 7.7 21 mph 52° @ 0843 AM 1.5 or 0.06 0.00 5.3 38.1 0
Lake McClellan 2NW 11:59 PM 79 36 57 /28 68 / 47 10.9  (NE) 7.9 21.8 mph 23° @ 0831 AM 1.5 or 0.06 0.00 11.5 89.4 0
Lamesa 2SE 11:55 PM 79 36 57 /28 68 / 47 10.4  (E) 7.5 23.5 mph 63° @ 0735 AM 1.5 or 0.06 0.00 4.5 32.2 0
Lesley 2S 11:59 PM 79 36 57 /28 68 / 47 9.4  (NE) 6.2 20.2 mph 41° @ 0521 AM 1.5 or 0.06 0.00 6.4 48.8 0
Levelland 4S 11:59 PM 79 36 57 /28 68 / 47 12.5  (E) 10.1 24.1 mph 50° @ 1029 AM 2 or 0.08 0.00 6 43.5 0
Lomax 1SSE 11:59 PM 79 36 57 /28 68 / 47 11.3  (NE) 8.9 21.3 mph 60° @ 0932 AM 1.8 or 0.07 0.00 5.3 36.7 0
Lubbock 3WNW TTU 11:55 PM 79 36 57 /28 68 / 47 10.5  (E) 7.8 21.6 mph 66° @ 0345 AM 1.8 or 0.07 0.00 7 50.8 0
McAdoo 3NNW 11:59 PM 79 36 57 /28 68 / 47 13.7  (NE) 9 26.3 mph 36° @ 0734 AM 1.5 or 0.06 0.00 7.2 53.3 0
McCamey 1SSW 11:59 PM 79 36 57 /28 68 / 47 9.9  (NE) 8.6 22.4 mph 63° @ 0504 AM 2 or 0.08 0.00 7.4 50.4 0
McLean 1E 11:55 PM 79 36 57 /28 68 / 47 10.1  (NE) 7.3 23.1 mph 34° @ 0900 AM 1.5 or 0.06 0.00 13.5 105.1 0
Memphis 1NE 11:59 PM 79 36 57 /28 68 / 47 8.5  (NE) 6.4 20.8 mph 19° @ 1016 AM 1.5 or 0.06 0.00 6.8 52.4 0
Menard 2NW 11:59 PM 79 36 57 /28 68 / 47 8.3  (NE) 6.5 20.5 mph 5° @ 0741 PM 1.8 or 0.07 0.00 3.3 22.3 0
Mertzon 3NNE 11:59 PM 79 36 57 /28 68 / 47 7.1  (NE) 4.9 19.8 mph 71° @ 1035 AM 1.3 or 0.05 0.00 4 27.1 0
Morton 1ENE 11:55 PM 79 36 57 /28 68 / 47 10.2  (SE) 6.9 21.8 mph 62° @ 1025 AM 2 or 0.08 0.00 8.5 62.2 0
Muleshoe 2SSW 11:55 PM 79 36 57 /28 68 / 47 8.5  (E) 6.2 19.3 mph 69° @ 1015 AM 1.5 or 0.06 0.00 10.5 78.2 0
New Home 11:59 PM 79 36 57 /28 68 / 47 11.7  (E) 8.4 23.3 mph 71° @ 0920 AM 2 or 0.08 0.00 6.7 48.4 0
Northfield 1S 11:55 PM 79 36 57 /28 68 / 47 8.1  (E) 5.2 17.2 mph 29° @ 0405 PM 1.3 or 0.05 0.00 5.4 41 0
O'Donnell 1N 11:55 PM 79 36 57 /28 68 / 47 15.4  (NE) 11.9 28.8 mph 58° @ 0650 AM 1.8 or 0.07 0.00 1 36.2 0
Odell 4ENE 11:59 PM 79 36 57 /28 68 / 47 8.6  (NE) 5.6 18.8 mph 2° @ 0931 AM 1 or 0.04 0.00 5.1 38.8 0
Olton 6S 11:55 PM 79 36 57 /28 68 / 47 11.2  (E) 8.3 23.4 mph 56° @ 1105 AM 1.5 or 0.06 0.00 7.9 58.2 0
Paducah 10SW 11:55 PM 79 36 57 /28 68 / 47 9.8  (NE) 5.8 19.6 mph 19° @ 0330 PM 1.3 or 0.05 0.00 1.2 44.3 0
Palo Duro 4E (JA Ranch) 11:59 PM 79 36 57 /28 68 / 47 6.7  (E) 4.3 15.1 mph 44° @ 1144 AM 1.5 or 0.06 0.00 8.1 61.9 0
Palo Duro Canyon SP Floor 11:59 PM 79 36 57 /28 68 / 47 4.6  (SE) 2.3 16.5 mph 111° @ 0137 AM 1.3 or 0.05 0.00 10.3 78.9 0
Palo Duro Canyon State Park Rim 11:59 PM 79 36 57 /28 68 / 47 6.4  (E) 2.9 19.6 mph 109° @ 1249 AM 1.3 or 0.05 0.00 11.3 86.6 0
Palo Duro Reservoir 1NW 11:59 PM 79 36 57 /28 68 / 47 7.5  (NE) 5.4 17.9 mph 98° @ 0525 PM 1.3 or 0.05 0.00 14.1 113.8 0
Pampa 2E 11:55 PM 79 36 57 /28 68 / 47 8.1  (E) 5.6 17.2 mph 61° @ 1050 AM 1.3 or 0.05 0.00 10.6 83.2 0
Panhandle 1SSW 11:59 PM 79 36 57 /28 68 / 47 8.8  (E) 6.4 19.1 mph 67° @ 1038 AM 1.3 or 0.05 0.00 10.3 80.2 0
Plains 3N 11:55 PM 79 36 57 /28 68 / 47 12  (E) 9.6 25.2 mph 63° @ 0845 AM 1.8 or 0.07 0.00 7.9 56.7 0
Plainview 1S 11:59 PM 79 36 57 /28 68 / 47 9.7  (E) 7.4 21.9 mph 39° @ 1006 AM 1.5 or 0.06 0.00 7.7 57.6 0
Post 1NE 11:59 PM 79 36 57 /28 68 / 47 10.2  (NE) 6.4 23 mph 46° @ 0913 AM 1.8 or 0.07 0.00 6.2 44.9 0
Ralls 1SE 11:59 PM 79 36 57 /28 68 / 47 12.7  (E) 9.8 23 mph 36° @ 0953 AM 1.8 or 0.07 0.00 6.8 50 0
Reese Center 11:59 PM 79 36 57 /28 68 / 47 13.5  (E) 10.2 27.4 mph 57° @ 0926 AM 2 or 0.08 0.00 7.4 54 0
Roaring Springs 3N 11:59 PM 79 36 57 /28 68 / 47 10.7  (NE) 7.3 21.9 mph 7° @ 1046 AM 1.3 or 0.05 0.00 6.3 47.1 0
Romero 11SSW 11:59 PM 79 36 57 /28 68 / 47 7.4  (E) 5.1 14.6 mph 49° @ 1111 AM 1.3 or 0.05 0.00 11.2 87.2 0
Rotan 5W 11:59 PM 79 36 57 /28 68 / 47 12.9  (NE) 10.5 25.3 mph 37° @ 0856 AM 1.5 or 0.06 0.00 5.9 42.6 0
San Angelo 7NW 11:55 PM 79 36 57 /28 68 / 47 7.7  (NE) 5.3 19.7 mph 67° @ 1025 AM 1.5 or 0.06 0.00 3.8 26.2 0
Seagraves 1SW 11:55 PM 79 36 57 /28 68 / 47 8.5  (E) 5.9 23.3 mph 63° @ 0820 AM 1.5 or 0.06 0.00 1.3 45.5 0
Segovia 7SSW 11:59 PM 79 36 57 /28 68 / 47 7.8  (NE) 5.6 18.3 mph 0° @ 1132 PM 1.3 or 0.05 0.00 5.2 34.2 0
Seminole 2NNE 11:55 PM 79 36 57 /28 68 / 47 10.5  (E) 7.5 24.3 mph 66° @ 0940 AM 1.5 or 0.06 0.00 1.3 46.6 0
Seymour 3NW 11:55 PM 79 36 57 /28 68 / 47 10.1  (NE) 7.9 24 mph 26° @ 0820 AM 1 or 0.04 0.00 4.2 31.2 0
Sierra Blanca 1SSE 11:59 PM 79 36 57 /28 68 / 47 5.8  (N) 4.2 19.4 mph 117° @ 0452 PM 2.3 or 0.09 0.00 14 93.2 0
Silverton 7ESE 11:55 PM 79 36 57 /28 68 / 47 12.5  (E) 8.9 24.9 mph 86° @ 1215 AM 1.5 or 0.06 0.00 4.9 37 0
Slaton 2NE 11:59 PM 79 36 57 /28 68 / 47 11  (E) 9 23 mph 47° @ 0910 AM 1.8 or 0.07 0.00 6.7 48.8 0
Smyer 11:59 PM 79 36 57 /28 68 / 47 11.9  (E) 8.8 24.1 mph 43° @ 0949 AM 2 or 0.08 0.00 7.8 56.6 0
Snyder 3E 11:55 PM 79 36 57 /28 68 / 47 13.2  (NE) 7 28.8 mph 42° @ 0600 AM 1.5 or 0.06 0.00 4.7 33.7 0
Snyder 3SSW 11:59 PM 79 36 57 /28 68 / 47 13.2  (NE) 9.2 25.9 mph 38° @ 0704 AM 1.8 or 0.07 0.00 5.1 36.3 0
South Plains 3ENE 11:59 PM 79 36 57 /28 68 / 47 10  (E) 7.7 20.5 mph 40° @ 0434 AM 1.5 or 0.06 0.00 7.3 54.8 0
Spur 1W 11:55 PM 79 36 57 /28 68 / 47 10.8  (E) 9.2 22.7 mph 48° @ 1050 AM 1.5 or 0.06 0.00 5.9 43.3 0
St. Lawrence 5SW 11:59 PM 79 36 57 /28 68 / 47 11.1  (NE) 8.8 23 mph 60° @ 0845 AM 1.8 or 0.07 0.00 6.2 42.3 0
Stamford 5ESE 11:59 PM 79 36 57 /28 68 / 47 10.9  (NE) 8.6 23.4 mph 20° @ 0126 PM 1.3 or 0.05 0.00 3.8 27.3 0
Sterling City 4WSW 11:59 PM 79 36 57 /28 68 / 47 7.1  (E) 5 17 mph 345° @ 1025 PM 1.3 or 0.05 0.00 3.6 24.7 0
Stinnett 1NNW 11:59 PM 79 36 57 /28 68 / 47 8  (E) 5.7 19.4 mph 79° @ 1134 AM 1.3 or 0.05 0.00 10.5 83.4 0
Stratford 4WNW 11:59 PM 79 36 57 /28 68 / 47 7.2  (NE) 4.5 19.2 mph 126° @ 0156 PM 1.3 or 0.05 0.00 13.7 110.3 0
Sundown 8WSW 11:55 PM 79 36 57 /28 68 / 47 10.4  (E) 7 22.1 mph 44° @ 1020 AM 1.8 or 0.07 0.00 6.6 48 0
Sweetwater 11SW 11:59 PM 79 36 57 /28 68 / 47 14.9  (NE) 10.7 27.9 mph 46° @ 0756 AM 1.5 or 0.06 0.00 4.5 31.5 0
Tahoka 3NNE 11:59 PM 79 36 57 /28 68 / 47 12.9  (E) 9 28.4 mph 61° @ 0648 AM 2 or 0.08 0.00 6.6 47.4 0
Tarzan 2WNW 11:59 PM 79 36 57 /28 68 / 47 13.1  (E) 9.2 26.9 mph 65° @ 0754 AM 1.8 or 0.07 0.00 6.1 42.7 0
Tatum NM 2SW 11:55 PM 79 36 57 /28 68 / 47 11  (E) 6.6 23.6 mph 63° @ 1020 AM 1.8 or 0.07 0.00 11.8 84.2 0
Throckmorton 1SW 11:59 PM 79 36 57 /28 68 / 47 7.1  (NE) 4.3 20.2 mph 33° @ 0741 AM 1 or 0.04 0.00 4.1 30.1 0
Truscott 2SE 11:59 PM 79 36 57 /28 68 / 47 8.9  (NE) 6.7 21.2 mph 17° @ 0351 AM 1.3 or 0.05 0.00 5.4 39.9 0
Tulia 2ENE 11:55 PM 79 36 57 /28 68 / 47 9.7  (E) 7 20.8 mph 70° @ 1110 AM 1.5 or 0.06 0.00 6.7 50.4 0
Turkey 2WSW 11:55 PM 79 36 57 /28 68 / 47 9.1  (NE) 6.8 18.1 mph 338° @ 0920 AM 1.3 or 0.05 0.00 5.7 43 0
Umbarger 3NNE 11:59 PM 79 36 57 /28 68 / 47 7.6  (E) 4.7 16.4 mph 79° @ 0508 PM 1.3 or 0.05 0.00 10.3 78.9 0
Van Horn 3ENE 11:59 PM 79 36 57 /28 68 / 47 8.6  (SW) 5.5 23.8 mph 20° @ 1258 PM 2.5 or 0.1 0.00 17.4 116 0
Vega 4E 11:59 PM 79 36 57 /28 68 / 47 9.6  (E) 6.7 28.5 mph 115° @ 0136 AM 1.5 or 0.06 0.00 13.7 105.8 0
Vigo Park 11:59 PM 79 36 57 /28 68 / 47 11  (E) 7.9 24.9 mph 85° @ 1226 AM 1.5 or 0.06 0.00 6.9 52.3 0
Wall 2E 11:59 PM 79 36 57 /28 68 / 47 9.8  (NE) 7.7 20.2 mph 90° @ 1108 AM 1.5 or 0.06 0.01 4.2 28.9 0
Weinert 2NNE 11:59 PM 79 36 57 /28 68 / 47 9.9  (NE) 7.9 22.4 mph 24° @ 1121 AM 1 or 0.04 0.00 4.1 30.4 0
Welch 11:59 PM 79 36 57 /28 68 / 47 11.1  (E) 8.4 24.3 mph 68° @ 0723 AM 1.8 or 0.07 0.00 6.1 43.6 0
Wellington 6SE 11:59 PM 79 36 57 /28 68 / 47 11.4  (NE) 8.3 24.1 mph 25° @ 1007 AM 1.5 or 0.06 0.00 6.8 52 0
White River Lake 6NW 11:59 PM 79 36 57 /28 68 / 47 12.1  (NE) 8.4 24.1 mph 38° @ 0744 AM 1.8 or 0.07 0.00 6.8 49.8 0
Wolfforth 6SSW 11:59 PM 79 36 57 /28 68 / 47 13  (E) 10.3 26.3 mph 69° @ 0900 AM 2 or 0.08 0.00 7.3 53.3 0

WestTexas Mesonet Home    Site Map/Menu  National Weather Service Lubbock   Soil Data   Latest Observation Page   Previous  Date   Next Last